Bloomfield Township, Michigan
Current Conditions -  °F | °C
As of 5:55 PM on Monday 22 Dec 2014 (Local Time) from KVLL Reporting Station
Clear Clear  
Wind Chill: 30°   Ceiling: Unl
Heat Index: 37°   Visibility: 10mi
Dew Point: 31°   Wind: 9mph
Humidity: 80%   Direction: 80°E
Pressure: 29.96"   Gusts: NA
Location:  42.5858°N, 83.2941°W
Report Text: KVLL 222255Z AUTO 08008KT 10SM CLR 03/00 A2996 RMK AO2 T00261005
Loading
Personal Weather Stations






























Interactive Weather Map New forecast layout! Learn more

10-Day Weather Forecast

Advertisements
Track Severe Weather on mobile